Time;durP1;ratioP1;P1;durP2;ratioP2;P2;SDS_P1;SDS_P2;PMS_P1;PMS_P2;Temp;Humidity;BMP_temperature;BMP_pressure;BME280_temperature;BME280_humidity;BME280_pressure;Samples;Min_cycle;Max_cycle;Signal;HPM_P1;HPM_P2
2022/06/05 00:00:11;;;;;;;15.73;7.70;;;12.00;99.90;;;;;;4997488;28;20398;-78
2022/06/05 00:02:58;;;;;;;15.25;8.02;;;12.00;99.90;;;;;;4996252;28;20057;-78
2022/06/05 00:05:27;;;;;;;16.75;7.78;;;12.00;99.90;;;;;;4996528;28;20379;-79
2022/06/05 00:08:11;;;;;;;16.02;7.95;;;12.00;99.90;;;;;;4997250;28;20057;-77
2022/06/05 00:10:56;;;;;;;17.30;7.35;;;11.90;99.90;;;;;;4996087;28;20046;-77
2022/06/05 00:13:39;;;;;;;21.02;9.13;;;12.00;99.90;;;;;;4996108;28;20406;-77
2022/06/05 00:16:06;;;;;;;16.65;7.25;;;12.00;99.90;;;;;;4995911;28;20042;-77
2022/06/05 00:18:33;;;;;;;20.02;7.47;;;12.00;99.90;;;;;;4995888;28;20062;-77
2022/06/05 00:20:59;;;;;;;16.55;8.13;;;12.00;99.90;;;;;;4996163;28;20047;-77
2022/06/05 00:23:25;;;;;;;16.58;7.88;;;11.90;99.90;;;;;;4997176;28;20104;-76
2022/06/05 00:26:16;;;;;;;18.95;8.65;;;12.00;99.90;;;;;;4995841;28;20043;-76
2022/06/05 00:29:09;;;;;;;17.50;8.05;;;12.00;99.90;;;;;;4995328;28;20449;-76
2022/06/05 00:31:53;;;;;;;17.05;7.65;;;12.00;99.90;;;;;;4995629;28;20051;-76
2022/06/05 00:34:19;;;;;;;18.00;7.55;;;12.00;99.90;;;;;;4996076;28;20062;-76
2022/06/05 00:37:23;;;;;;;21.17;7.75;;;12.00;99.90;;;;;;4995885;28;20441;-76
2022/06/05 00:40:07;;;;;;;;;;;12.00;99.90;;;;;;4997329;28;20043;-76
2022/06/05 00:42:34;;;;;;;16.10;7.10;;;12.00;99.90;;;;;;4995588;28;20490;-76
2022/06/05 00:45:06;;;;;;;15.43;7.90;;;12.00;99.90;;;;;;4996771;28;20082;-76
2022/06/05 00:47:33;;;;;;;15.88;9.10;;;12.00;99.90;;;;;;4996049;28;20052;-77
2022/06/05 00:50:08;;;;;;;16.88;7.88;;;12.10;99.90;;;;;;4995313;28;20050;-77
2022/06/05 00:52:37;;;;;;;20.15;7.72;;;12.10;99.90;;;;;;4995166;28;20054;-77
2022/06/05 00:55:05;;;;;;;19.98;8.30;;;12.10;99.90;;;;;;4996634;28;20096;-76
2022/06/05 00:57:33;;;;;;;15.40;8.90;;;12.10;99.90;;;;;;4995541;28;20042;-76
2022/06/05 01:00:02;;;;;;;18.55;8.20;;;12.10;99.90;;;;;;4995326;28;20088;-76
2022/06/05 01:02:28;;;;;;;15.60;8.48;;;12.00;99.90;;;;;;4995130;28;20054;-74
2022/06/05 01:04:54;;;;;;;18.92;8.13;;;12.00;99.90;;;;;;4995109;28;20129;-75
2022/06/05 01:07:20;;;;;;;20.20;8.63;;;12.10;99.90;;;;;;4995055;28;20141;-75
2022/06/05 01:09:49;;;;;;;18.67;9.40;;;12.00;99.90;;;;;;4995101;28;20046;-77
2022/06/05 01:12:25;;;;;;;15.82;8.45;;;12.00;99.90;;;;;;4994945;28;20061;-77
2022/06/05 01:15:18;;;;;;;21.15;8.82;;;12.00;99.90;;;;;;4996329;28;20050;-77
2022/06/05 01:17:53;;;;;;;;;;;12.00;99.90;;;;;;4995640;28;20054;-77
2022/06/05 01:20:57;;;;;;;22.35;8.70;;;12.00;99.90;;;;;;4994887;28;19918;-76
2022/06/05 01:23:23;;;;;;;21.33;10.35;;;12.00;99.90;;;;;;4994823;28;20054;-77
2022/06/05 01:26:17;;;;;;;21.00;8.93;;;12.00;99.90;;;;;;4994821;28;20042;-76
2022/06/05 01:28:54;;;;;;;21.77;10.20;;;12.00;99.90;;;;;;4994665;28;20069;-76
2022/06/05 01:31:36;;;;;;;23.08;11.38;;;12.00;99.90;;;;;;4994487;28;20069;-76
2022/06/05 01:34:24;;;;;;;22.75;11.27;;;12.00;99.90;;;;;;4994857;28;20501;-77
2022/06/05 01:37:00;;;;;;;23.77;10.73;;;12.00;99.90;;;;;;4994848;28;20387;-77
2022/06/05 01:39:29;;;;;;;29.00;10.48;;;12.00;99.90;;;;;;4994630;28;20042;-77
2022/06/05 01:42:04;;;;;;;23.08;10.70;;;12.10;99.90;;;;;;4994543;28;20057;-77
2022/06/05 01:44:34;;;;;;;24.45;11.05;;;12.10;99.90;;;;;;4994650;28;20046;-77
2022/06/05 01:47:16;;;;;;;22.13;9.00;;;12.10;99.90;;;;;;4994477;28;20043;-77
2022/06/05 01:49:56;;;;;;;26.92;10.63;;;12.10;99.90;;;;;;4994595;28;20115;-77
2022/06/05 01:52:29;;;;;;;20.45;10.70;;;12.10;99.90;;;;;;4994311;28;20425;-77
2022/06/05 01:55:00;;;;;;;26.50;11.45;;;12.10;99.90;;;;;;4994460;28;20486;-77
2022/06/05 01:57:27;;;;;;;24.40;10.88;;;12.10;99.90;;;;;;4994452;28;20520;-77
2022/06/05 01:59:58;;;;;;;32.15;11.90;;;12.20;99.90;;;;;;4994464;28;20062;-77
2022/06/05 02:02:33;;;;;;;26.70;11.50;;;12.10;99.90;;;;;;4993408;28;20042;-76
2022/06/05 02:05:09;;;;;;;31.23;12.18;;;12.10;99.90;;;;;;4993974;28;20533;-77
2022/06/05 02:07:39;;;;;;;35.03;13.00;;;12.20;99.90;;;;;;4994209;28;20046;-76
2022/06/05 02:10:13;;;;;;;33.03;12.75;;;12.20;99.90;;;;;;4993987;28;20133;-76
2022/06/05 02:12:39;;;;;;;26.23;11.73;;;12.20;99.90;;;;;;4993815;28;20054;-76
2022/06/05 02:15:06;;;;;;;30.90;11.88;;;12.20;99.90;;;;;;4995130;28;20046;-77
2022/06/05 02:17:33;;;;;;;26.90;11.77;;;12.20;99.90;;;;;;4993965;28;20121;-75
2022/06/05 02:20:00;;;;;;;27.80;12.30;;;12.20;99.90;;;;;;4993925;28;20061;-75
2022/06/05 02:22:47;;;;;;;32.00;13.05;;;12.20;99.90;;;;;;4993730;28;20046;-75
2022/06/05 02:25:16;;;;;;;32.47;13.35;;;12.20;99.90;;;;;;4994741;28;20246;-75
2022/06/05 02:27:41;;;;;;;28.90;13.10;;;12.20;99.90;;;;;;4994236;28;20050;-75
2022/06/05 02:30:10;;;;;;;28.55;12.50;;;12.20;99.90;;;;;;4993331;28;20406;-75
2022/06/05 02:32:59;;;;;;;33.25;12.85;;;12.30;99.90;;;;;;4993392;28;20383;-76
2022/06/05 02:35:48;;;;;;;34.45;12.63;;;12.30;99.90;;;;;;4993823;28;20046;-76
2022/06/05 02:38:21;;;;;;;34.95;12.50;;;12.30;99.90;;;;;;4993619;28;20108;-76
2022/06/05 02:40:58;;;;;;;31.92;11.65;;;12.30;99.90;;;;;;4994729;28;20126;-76
2022/06/05 02:43:30;;;;;;;27.10;11.45;;;12.30;99.90;;;;;;4993676;28;20073;-76
2022/06/05 02:46:07;;;;;;;28.20;11.50;;;12.40;99.90;;;;;;4993524;28;20053;-77
2022/06/05 02:48:43;;;;;;;31.45;12.35;;;12.40;99.90;;;;;;4993096;28;20054;-77
2022/06/05 02:51:20;;;;;;;34.58;13.13;;;12.40;99.90;;;;;;4992686;28;20434;-74
2022/06/05 02:53:53;;;;;;;37.83;13.07;;;12.40;99.90;;;;;;4991876;28;20057;-75
2022/06/05 02:56:20;;;;;;;32.53;12.75;;;12.40;99.90;;;;;;4992132;28;20042;-75
2022/06/05 02:58:49;;;;;;;39.83;13.02;;;12.40;99.90;;;;;;4992736;28;20108;-75
2022/06/05 03:03:59;;;;;;;36.92;14.32;;;12.50;99.90;;;;;;4994314;28;20112;-76
2022/06/05 03:06:24;;;;;;;41.15;13.93;;;12.50;99.90;;;;;;4994117;28;20038;-76
2022/06/05 03:08:50;;;;;;;40.90;15.30;;;12.50;99.90;;;;;;4993957;28;20050;-76
2022/06/05 03:11:16;;;;;;;37.42;12.75;;;12.50;99.90;;;;;;4994298;28;20089;-76
2022/06/05 03:13:41;;;;;;;42.40;13.77;;;12.50;99.90;;;;;;4993217;28;20129;-76
2022/06/05 03:16:08;;;;;;;44.17;15.25;;;12.60;99.90;;;;;;5000433;28;20050;-76
2022/06/05 03:18:34;;;;;;;41.15;14.48;;;12.70;99.90;;;;;;5000763;28;20121;-76
2022/06/05 03:21:00;;;;;;;37.78;13.68;;;12.60;99.90;;;;;;4999215;28;20042;-75
2022/06/05 03:23:26;;;;;;;38.20;13.68;;;12.60;99.90;;;;;;4999103;28;20050;-77
2022/06/05 03:25:53;;;;;;;36.88;13.95;;;12.70;99.90;;;;;;4999130;28;20495;-76
2022/06/05 03:28:18;;;;;;;42.60;13.93;;;12.70;99.90;;;;;;4998940;28;20088;-76
2022/06/05 03:30:44;;;;;;;36.08;13.18;;;12.70;99.90;;;;;;4999026;28;20106;-76
2022/06/05 03:33:11;;;;;;;39.72;13.73;;;12.70;99.90;;;;;;4998972;28;20057;-76
2022/06/05 03:35:39;;;;;;;41.10;15.63;;;12.70;99.90;;;;;;4999104;28;20053;-76
2022/06/05 03:38:05;;;;;;;43.70;14.70;;;12.70;99.90;;;;;;4999001;28;20057;-76
2022/06/05 03:40:32;;;;;;;46.20;16.33;;;12.70;99.90;;;;;;4999240;28;20034;-76
2022/06/05 03:42:59;;;;;;;49.55;15.43;;;12.70;99.90;;;;;;4999358;28;20065;-77
2022/06/05 03:45:25;;;;;;;46.60;15.50;;;12.70;99.90;;;;;;4999236;28;20042;-77
2022/06/05 03:47:50;;;;;;;44.22;15.00;;;12.70;99.90;;;;;;4998970;28;20042;-76
2022/06/05 03:50:18;;;;;;;44.97;15.25;;;12.80;99.90;;;;;;4999157;28;20123;-76
2022/06/05 03:52:44;;;;;;;39.08;14.43;;;12.80;99.90;;;;;;4998704;28;20056;-76
2022/06/05 03:55:14;;;;;;;42.47;14.82;;;12.80;99.90;;;;;;4998884;28;20047;-77
2022/06/05 03:57:40;;;;;;;46.55;15.25;;;12.80;99.90;;;;;;4998956;28;20053;-76
2022/06/05 04:00:09;;;;;;;47.47;16.08;;;12.80;99.90;;;;;;4998818;28;20080;-77
2022/06/05 04:02:35;;;;;;;52.35;16.52;;;12.90;99.90;;;;;;4998957;28;20046;-76
2022/06/05 04:05:02;;;;;;;48.58;15.55;;;12.90;99.90;;;;;;4998727;28;20046;-77
2022/06/05 04:07:28;;;;;;;51.85;16.30;;;12.90;99.90;;;;;;4998820;28;20042;-76
2022/06/05 04:09:54;;;;;;;51.42;15.40;;;12.90;99.90;;;;;;4998738;28;20051;-76
2022/06/05 04:12:19;;;;;;;47.50;17.20;;;12.90;99.90;;;;;;4998716;28;20122;-76
2022/06/05 04:14:45;;;;;;;61.33;18.48;;;13.00;99.90;;;;;;4999005;28;20081;-76
2022/06/05 04:17:11;;;;;;;60.08;18.67;;;12.90;99.90;;;;;;4999911;28;20482;-77
2022/06/05 04:19:37;;;;;;;43.08;16.80;;;12.90;99.90;;;;;;4998895;28;20042;-77
2022/06/05 04:22:04;;;;;;;57.72;17.65;;;13.00;99.90;;;;;;4998625;28;20050;-76
2022/06/05 04:24:30;;;;;;;52.25;17.15;;;13.00;99.90;;;;;;4998669;28;20050;-76
2022/06/05 04:26:56;;;;;;;50.42;18.13;;;13.00;99.90;;;;;;4995643;28;20050;-76
2022/06/05 04:29:22;;;;;;;56.53;18.35;;;13.00;99.90;;;;;;4995285;28;20085;-76
2022/06/05 04:31:49;;;;;;;60.85;18.77;;;13.10;99.90;;;;;;4995473;28;20510;-76
2022/06/05 04:34:17;;;;;;;59.28;17.67;;;13.10;99.90;;;;;;4995420;28;20054;-76
2022/06/05 04:36:44;;;;;;;56.45;17.63;;;13.10;99.90;;;;;;4995725;28;20078;-76
2022/06/05 04:39:10;;;;;;;47.95;16.98;;;13.20;99.90;;;;;;4995660;28;20099;-77
2022/06/05 04:41:36;;;;;;;56.88;19.50;;;13.20;99.90;;;;;;4995468;28;20057;-77
2022/06/05 04:44:02;;;;;;;54.83;18.05;;;13.30;99.90;;;;;;4995209;28;20129;-77
2022/06/05 04:46:29;;;;;;;46.42;18.67;;;13.30;99.90;;;;;;4995502;28;20053;-77
2022/06/05 04:48:55;;;;;;;56.75;19.77;;;13.40;99.90;;;;;;4995171;28;20450;-76
2022/06/05 04:51:22;;;;;;;52.05;17.92;;;13.40;99.90;;;;;;4995144;28;20057;-76
2022/06/05 04:53:49;;;;;;;47.70;17.35;;;13.50;99.90;;;;;;4994998;28;20387;-76
2022/06/05 04:56:19;;;;;;;49.80;16.77;;;13.60;99.90;;;;;;4995298;28;20038;-77
2022/06/05 04:58:45;;;;;;;54.33;15.93;;;13.50;99.90;;;;;;4995337;28;20494;-77
2022/06/05 05:01:29;;;;;;;59.42;17.88;;;13.50;99.90;;;;;;4994904;28;20137;-77
2022/06/05 05:03:58;;;;;;;59.13;17.38;;;13.50;99.90;;;;;;4995128;28;20405;-75
2022/06/05 05:06:24;;;;;;;52.63;16.50;;;13.60;99.90;;;;;;4996087;28;20446;-76
2022/06/05 05:08:50;;;;;;;46.47;16.27;;;13.60;99.90;;;;;;4996373;28;20030;-76
2022/06/05 05:11:17;;;;;;;53.03;18.73;;;13.60;99.90;;;;;;4994740;28;20405;-76
2022/06/05 05:13:42;;;;;;;48.53;16.98;;;13.60;99.90;;;;;;4995782;28;20482;-76
2022/06/05 05:16:08;;;;;;;51.25;16.70;;;13.60;99.90;;;;;;4994915;28;20092;-75
2022/06/05 05:18:35;;;;;;;51.28;17.42;;;13.70;99.90;;;;;;4994862;28;20058;-76
2022/06/05 05:21:11;;;;;;;53.10;18.25;;;13.70;99.90;;;;;;4994729;28;20125;-76
2022/06/05 05:23:37;;;;;;;60.83;19.33;;;13.70;99.90;;;;;;4994535;28;20043;-77
2022/06/05 05:26:15;;;;;;;58.88;18.60;;;13.70;99.90;;;;;;4995982;28;20074;-77
2022/06/05 05:28:43;;;;;;;51.38;18.52;;;13.70;99.90;;;;;;4994566;28;20050;-75
2022/06/05 05:31:11;;;;;;;56.38;19.70;;;13.80;99.90;;;;;;4995929;28;20093;-75
2022/06/05 05:33:39;;;;;;;56.25;20.50;;;13.80;99.90;;;;;;4995528;28;20046;-75
2022/06/05 05:36:05;;;;;;;54.63;19.52;;;13.80;99.90;;;;;;4994541;28;20050;-76
2022/06/05 05:38:32;;;;;;;58.03;20.27;;;13.90;99.90;;;;;;4993371;28;20042;-76
2022/06/05 05:43:41;;;;;;;53.90;17.58;;;14.00;99.90;;;;;;4994128;28;20057;-76
2022/06/05 05:46:09;;;;;;;56.40;19.08;;;14.00;99.90;;;;;;4994139;28;20047;-76
2022/06/05 05:48:35;;;;;;;52.58;18.17;;;14.10;99.90;;;;;;4994084;28;20414;-75
2022/06/05 05:51:01;;;;;;;67.47;19.15;;;14.20;99.90;;;;;;4994250;28;20483;-77
2022/06/05 05:53:26;;;;;;;57.17;17.90;;;14.30;99.90;;;;;;4993843;28;20050;-77
2022/06/05 05:55:52;;;;;;;57.92;18.02;;;14.40;99.90;;;;;;4993986;28;20038;-77
2022/06/05 05:58:18;;;;;;;49.25;18.80;;;14.50;99.90;;;;;;4993866;28;20055;-77
2022/06/05 06:00:43;;;;;;;54.67;18.83;;;14.60;99.90;;;;;;4994088;28;20060;-77
2022/06/05 06:03:09;;;;;;;55.83;20.05;;;14.70;99.90;;;;;;4994059;28;20379;-77
2022/06/05 06:05:35;;;;;;;62.17;19.83;;;14.70;99.90;;;;;;4994095;28;20050;-77
2022/06/05 06:08:00;;;;;;;49.97;18.45;;;14.90;99.90;;;;;;4994920;28;20136;-77
2022/06/05 06:10:26;;;;;;;54.03;18.73;;;15.00;99.90;;;;;;4995172;28;20038;-76
2022/06/05 06:12:52;;;;;;;52.75;19.80;;;14.90;99.90;;;;;;4994952;28;20057;-78
2022/06/05 06:15:17;;;;;;;49.55;17.63;;;14.90;99.90;;;;;;4995022;28;20486;-77
2022/06/05 06:17:43;;;;;;;67.57;19.85;;;14.90;99.90;;;;;;4995031;28;20046;-78
2022/06/05 06:20:11;;;;;;;49.67;18.83;;;15.00;99.90;;;;;;4995012;28;20047;-77
2022/06/05 06:22:37;;;;;;;56.47;17.88;;;15.00;99.90;;;;;;4994586;28;20453;-77
2022/06/05 06:25:05;;;;;;;56.25;20.23;;;15.00;99.90;;;;;;4994792;28;20054;-77
2022/06/05 06:27:31;;;;;;;53.67;20.38;;;15.00;99.90;;;;;;4995167;28;20108;-77
2022/06/05 06:29:56;;;;;;;52.22;18.75;;;15.00;99.90;;;;;;4993260;28;20498;-78
2022/06/05 06:32:22;;;;;;;61.22;19.58;;;15.10;99.90;;;;;;4993467;28;20457;-77
2022/06/05 06:34:48;;;;;;;56.88;19.52;;;15.20;99.90;;;;;;4994740;28;20046;-78
2022/06/05 06:37:13;;;;;;;50.65;17.30;;;15.30;99.90;;;;;;4993410;28;20096;-77
2022/06/05 06:39:39;;;;;;;53.17;20.30;;;15.40;99.90;;;;;;4994442;28;20042;-79
2022/06/05 06:42:05;;;;;;;52.17;20.30;;;15.40;99.90;;;;;;4994568;28;20046;-77
2022/06/05 06:44:30;;;;;;;51.20;18.50;;;15.50;99.90;;;;;;4993136;28;20047;-77
2022/06/05 06:46:56;;;;;;;54.28;20.65;;;15.60;99.90;;;;;;4993265;28;20050;-76
2022/06/05 06:49:22;;;;;;;58.88;20.02;;;15.50;99.90;;;;;;4992947;28;20054;-76
2022/06/05 06:51:47;;;;;;;54.22;20.08;;;15.60;99.90;;;;;;4992939;28;20485;-76
2022/06/05 06:54:13;;;;;;;60.20;19.95;;;15.60;99.90;;;;;;4993242;28;20061;-76
2022/06/05 06:56:39;;;;;;;57.13;21.02;;;15.70;99.90;;;;;;4993229;28;20051;-76
2022/06/05 06:59:05;;;;;;;45.28;18.77;;;15.70;99.90;;;;;;4992939;28;20057;-75
2022/06/05 07:01:31;;;;;;;51.85;19.27;;;15.70;99.90;;;;;;4992844;28;20046;-76
2022/06/05 07:03:57;;;;;;;50.72;20.75;;;15.70;99.90;;;;;;4994362;28;20046;-75
2022/06/05 07:06:23;;;;;;;49.30;19.55;;;15.80;99.90;;;;;;4993947;28;20047;-76
2022/06/05 07:08:49;;;;;;;43.17;19.05;;;15.80;99.90;;;;;;4992809;28;20089;-75
2022/06/05 07:11:15;;;;;;;50.80;19.45;;;15.80;99.90;;;;;;4994096;28;20413;-75
2022/06/05 07:13:41;;;;;;;49.45;20.58;;;15.80;99.90;;;;;;4994134;28;20489;-76
2022/06/05 07:16:09;;;;;;;49.25;19.63;;;15.90;99.90;;;;;;4992728;28;20050;-76
2022/06/05 07:18:35;;;;;;;48.03;20.00;;;15.80;99.90;;;;;;4992708;28;20055;-76
2022/06/05 07:21:12;;;;;;;58.47;22.08;;;15.90;99.90;;;;;;4997421;28;20410;-76
2022/06/05 07:23:38;;;;;;;54.47;21.35;;;15.80;99.90;;;;;;5012177;28;20132;-76
2022/06/05 07:26:08;;;;;;;52.08;21.27;;;15.70;99.90;;;;;;5013558;28;20121;-76
2022/06/05 07:28:34;;;;;;;49.33;20.10;;;15.70;99.90;;;;;;5011891;28;20297;-75
2022/06/05 07:31:02;;;;;;;43.92;17.83;;;15.80;99.90;;;;;;5013322;28;20080;-76
2022/06/05 07:33:30;;;;;;;50.28;21.35;;;15.90;99.90;;;;;;5013145;28;20053;-76
2022/06/05 07:36:03;;;;;;;54.45;20.25;;;15.90;99.90;;;;;;5011963;28;20050;-76
2022/06/05 07:38:29;;;;;;;;;;;16.10;99.90;;;;;;5012448;28;20049;-76
2022/06/05 07:40:56;;;;;;;49.85;20.33;;;16.10;99.90;;;;;;5013197;28;19925;-76
2022/06/05 07:43:22;;;;;;;53.10;21.90;;;16.30;99.90;;;;;;5011884;28;20065;-75
2022/06/05 07:45:49;;;;;;;52.47;20.33;;;16.30;99.90;;;;;;5011875;28;20493;-75
2022/06/05 07:48:17;;;;;;;58.08;19.75;;;16.40;99.90;;;;;;5011889;28;20050;-75
2022/06/05 07:56:11;;;;;;;53.63;20.00;;;16.80;99.90;;;;;;5011747;28;20493;-75
2022/06/05 07:58:36;;;;;;;47.58;21.92;;;17.10;99.90;;;;;;5011601;28;20042;-76
2022/06/05 08:01:02;;;;;;;43.30;20.48;;;17.30;99.90;;;;;;5011824;28;20042;-75
2022/06/05 08:03:28;;;;;;;46.08;19.42;;;17.50;99.90;;;;;;5015426;28;20096;-76
2022/06/05 08:05:53;;;;;;;45.80;20.38;;;17.70;99.90;;;;;;5015631;28;20042;-76
2022/06/05 08:08:19;;;;;;;45.63;20.25;;;17.80;99.90;;;;;;5015671;28;20370;-77
2022/06/05 08:10:44;;;;;;;42.92;19.55;;;18.00;99.90;;;;;;5015545;28;20075;-78
2022/06/05 08:13:10;;;;;;;40.70;18.42;;;18.10;99.90;;;;;;5015218;28;20141;-78
2022/06/05 08:15:36;;;;;;;37.60;18.52;;;18.10;99.90;;;;;;5015321;28;20038;-78
2022/06/05 08:18:02;;;;;;;45.85;18.45;;;18.30;99.90;;;;;;5015191;28;20064;-78
2022/06/05 08:20:27;;;;;;;41.97;19.75;;;18.40;99.90;;;;;;5015495;28;20121;-77
2022/06/05 08:22:53;;;;;;;42.30;19.90;;;18.40;99.90;;;;;;5015068;28;20144;-78
2022/06/05 08:25:20;;;;;;;41.88;19.67;;;18.30;99.90;;;;;;5016172;28;20096;-78
2022/06/05 08:27:46;;;;;;;43.92;18.92;;;18.40;99.90;;;;;;5015346;28;20060;-78
2022/06/05 08:30:12;;;;;;;39.05;19.67;;;18.60;99.90;;;;;;5014313;28;20046;-78
2022/06/05 08:32:37;;;;;;;39.58;19.30;;;18.60;99.90;;;;;;5016311;28;20050;-78
2022/06/05 08:35:04;;;;;;;43.00;18.10;;;18.60;99.90;;;;;;5014867;28;20045;-78
2022/06/05 08:43:20;;;;;;;44.20;20.40;;;18.60;99.90;;;;;;5014955;28;20064;-78
2022/06/05 08:46:04;;;;;;;39.35;19.90;;;18.70;99.90;;;;;;5015033;28;20049;-78
2022/06/05 08:48:56;;;;;;;41.47;18.73;;;18.80;99.90;;;;;;5014631;28;20045;-78
2022/06/05 08:51:25;;;;;;;45.70;20.02;;;18.80;99.90;;;;;;5014605;28;20074;-78
2022/06/05 08:54:00;;;;;;;38.95;18.65;;;18.80;99.90;;;;;;5014465;28;20042;-78
2022/06/05 08:56:41;;;;;;;43.50;21.25;;;18.90;99.90;;;;;;5000403;28;20184;-78
2022/06/05 08:59:16;;;;;;;40.88;20.98;;;18.90;99.90;;;;;;5002529;28;20043;-78
2022/06/05 09:02:01;;;;;;;42.92;21.20;;;18.80;99.90;;;;;;5007782;28;20437;-78
2022/06/05 09:04:32;;;;;;;39.70;20.85;;;18.80;99.90;;;;;;5014533;28;20053;-78
2022/06/05 09:07:04;;;;;;;42.92;20.17;;;18.80;99.90;;;;;;5014591;28;20042;-78
2022/06/05 09:09:40;;;;;;;43.63;20.90;;;18.90;99.90;;;;;;5015470;28;20445;-78
2022/06/05 09:12:41;;;;;;;42.42;22.50;;;18.80;99.90;;;;;;5012715;28;20052;-77
2022/06/05 09:15:29;;;;;;;39.97;20.50;;;18.90;99.90;;;;;;5009929;28;20089;-79
2022/06/05 09:17:57;;;;;;;44.88;21.67;;;19.10;99.90;;;;;;5014276;28;20088;-77
2022/06/05 09:20:51;;;;;;;43.20;21.42;;;19.20;99.90;;;;;;5014223;28;20049;-78
2022/06/05 09:23:32;;;;;;;41.95;21.40;;;19.30;99.90;;;;;;5014294;28;20192;-85
2022/06/05 09:26:24;;;;;;;38.45;20.15;;;19.30;99.90;;;;;;5013845;28;20054;-85
2022/06/05 09:29:29;;;;;;;44.47;20.90;;;19.20;99.90;;;;;;5013779;28;20185;-88
2022/06/05 09:32:26;;;;;;;48.42;22.52;;;19.30;99.90;;;;;;5004080;28;20057;-86
2022/06/05 09:34:56;;;;;;;45.10;21.38;;;19.50;99.90;;;;;;4997991;28;20116;-86
2022/06/05 09:37:48;;;;;;;47.58;22.98;;;19.50;99.90;;;;;;5014071;28;20051;-84
2022/06/05 09:40:31;;;;;;;43.40;21.25;;;19.50;99.90;;;;;;5013027;28;20397;-78
2022/06/05 09:43:13;;;;;;;39.42;19.58;;;19.50;99.90;;;;;;5013681;28;20509;-78
2022/06/05 09:45:45;;;;;;;42.88;21.92;;;19.60;99.90;;;;;;5013622;28;20049;-78
2022/06/05 09:48:22;;;;;;;41.42;22.15;;;19.40;99.90;;;;;;5015018;28;20046;-85
2022/06/05 09:50:48;;;;;;;39.13;21.00;;;19.50;99.90;;;;;;5013660;28;20077;-85
2022/06/05 09:53:31;;;;;;;41.55;20.23;;;19.60;99.90;;;;;;5014875;28;20078;-85
2022/06/05 09:56:15;;;;;;;41.10;21.27;;;19.60;99.90;;;;;;5013707;28;20057;-85
2022/06/05 09:58:46;;;;;;;42.50;22.70;;;19.60;99.90;;;;;;5014791;28;20121;-86
2022/06/05 10:01:22;;;;;;;37.75;20.20;;;19.70;99.90;;;;;;5013208;28;20046;-84
2022/06/05 10:03:49;;;;;;;46.63;21.70;;;19.80;99.90;;;;;;5013581;28;20088;-84
2022/06/05 10:06:27;;;;;;;46.83;23.63;;;20.00;99.90;;;;;;5013403;28;20046;-84
2022/06/05 10:09:02;;;;;;;41.95;22.48;;;19.80;99.90;;;;;;5013478;28;20457;-84
2022/06/05 10:11:49;;;;;;;42.42;22.08;;;19.90;99.90;;;;;;5013396;28;20049;-84
2022/06/05 10:14:28;;;;;;;45.58;22.80;;;20.00;99.90;;;;;;5013047;28;20057;-83
2022/06/05 10:17:05;;;;;;;44.25;21.67;;;19.80;99.90;;;;;;5013344;28;20064;-84
2022/06/05 10:19:57;;;;;;;45.72;22.98;;;19.80;99.90;;;;;;5013264;28;20359;-88
2022/06/05 10:22:41;;;;;;;42.72;22.67;;;19.80;99.90;;;;;;5013126;28;20056;-85
2022/06/05 10:25:23;;;;;;;59.53;23.98;;;20.00;99.90;;;;;;5012343;28;20049;-81
2022/06/05 10:27:52;;;;;;;48.92;21.55;;;19.90;99.90;;;;;;5012834;28;20133;-84
2022/06/05 10:30:20;;;;;;;69.28;22.13;;;19.80;99.90;;;;;;5012643;28;20050;-83
2022/06/05 10:33:11;;;;;;;57.95;23.20;;;19.80;99.90;;;;;;5014112;28;20049;-83
2022/06/05 10:35:45;;;;;;;60.53;24.30;;;19.70;99.90;;;;;;5006511;28;20057;-83
2022/06/05 10:38:30;;;;;;;51.67;21.65;;;19.70;99.90;;;;;;5013994;28;20049;-83
2022/06/05 10:41:04;;;;;;;54.88;21.67;;;19.80;99.90;;;;;;5012772;28;20072;-83
2022/06/05 10:43:31;;;;;;;60.28;22.55;;;19.80;99.90;;;;;;5012632;28;20045;-83
2022/06/05 10:46:06;;;;;;;53.00;22.65;;;19.50;99.90;;;;;;5013831;28;20501;-83
2022/06/05 10:48:56;;;;;;;51.67;21.70;;;19.70;99.90;;;;;;5012587;28;20050;-83
2022/06/05 10:52:03;;;;;;;58.58;25.70;;;19.70;99.90;;;;;;5013962;28;20053;-82
2022/06/05 10:54:54;;;;;;;61.13;22.20;;;19.70;99.90;;;;;;4956394;28;20129;-82
2022/06/05 10:57:31;;;;;;;54.42;21.92;;;19.80;99.90;;;;;;5010384;28;20557;-83
2022/06/05 10:59:59;;;;;;;60.10;21.02;;;20.00;99.90;;;;;;5013689;28;20069;-82
2022/06/05 11:03:02;;;;;;;53.80;22.70;;;20.20;99.90;;;;;;5012420;28;20045;-83
2022/06/05 11:06:01;;;;;;;59.38;22.83;;;20.00;99.90;;;;;;5013651;28;20551;-83
2022/06/05 11:09:01;;;;;;;57.72;24.83;;;20.10;99.90;;;;;;5013785;28;20077;-83
2022/06/05 11:14:39;;;;;;;64.47;24.50;;;19.50;99.90;;;;;;5012136;28;20092;-83
2022/06/05 11:17:26;;;;;;;70.13;25.38;;;19.50;99.90;;;;;;5013769;28;20046;-84
2022/06/05 11:20:10;;;;;;;67.97;24.95;;;19.40;99.90;;;;;;5012330;28;20056;-84
2022/06/05 11:22:43;;;;;;;61.75;25.58;;;19.50;99.90;;;;;;5013633;28;20042;-84
2022/06/05 11:25:15;;;;;;;64.63;23.75;;;19.50;99.90;;;;;;5013349;28;20481;-86
2022/06/05 11:28:10;;;;;;;59.03;23.50;;;19.50;99.90;;;;;;5013526;28;20100;-85
2022/06/05 11:30:49;;;;;;;66.30;26.88;;;19.50;99.90;;;;;;5003621;28;20053;-84
2022/06/05 11:33:23;;;;;;;61.60;25.02;;;19.40;99.90;;;;;;5012142;28;20057;-84
2022/06/05 11:36:07;;;;;;;61.40;25.65;;;19.30;99.90;;;;;;5014316;28;20061;-84
2022/06/05 11:39:15;;;;;;;55.72;23.25;;;19.30;99.90;;;;;;5016372;28;20442;-85
2022/06/05 11:41:55;;;;;;;66.40;26.85;;;19.40;99.90;;;;;;4984040;28;20057;-83
2022/06/05 11:44:27;;;;;;;69.47;27.42;;;19.30;99.90;;;;;;5016061;28;20046;-83
2022/06/05 11:47:38;;;;;;;67.20;25.27;;;19.20;99.90;;;;;;5016117;28;20060;-84
2022/06/05 11:50:36;;;;;;;64.93;26.80;;;19.10;99.90;;;;;;5006106;28;20066;-82
2022/06/05 11:53:18;;;;;;;64.88;26.23;;;19.40;99.90;;;;;;5017211;28;20128;-81
2022/06/05 11:56:12;;;;;;;66.22;25.73;;;19.30;99.90;;;;;;5015701;28;20125;-83
2022/06/05 11:58:52;;;;;;;64.85;24.73;;;19.30;99.90;;;;;;5015798;28;20118;-82
2022/06/05 12:01:23;;;;;;;64.95;26.08;;;19.40;99.90;;;;;;5014906;28;20041;-83
2022/06/05 12:04:14;;;;;;;78.60;26.77;;;19.30;99.90;;;;;;4995940;28;20050;-83
2022/06/05 12:06:50;;;;;;;69.15;24.80;;;19.40;99.90;;;;;;4997367;28;20031;-83
2022/06/05 12:09:22;;;;;;;63.03;25.70;;;19.20;99.90;;;;;;4996108;28;20406;-83
2022/06/05 12:11:51;;;;;;;72.80;26.90;;;19.30;99.90;;;;;;4995702;28;20117;-84
2022/06/05 12:14:25;;;;;;;68.68;26.33;;;19.20;99.90;;;;;;4995696;28;20097;-84
2022/06/05 12:16:55;;;;;;;78.13;26.00;;;19.30;99.90;;;;;;4995583;28;20118;-83
2022/06/05 12:19:55;;;;;;;78.72;29.65;;;19.20;99.90;;;;;;4995657;28;20057;-84
2022/06/05 12:22:37;;;;;;;66.88;28.25;;;18.90;99.90;;;;;;4995873;28;20056;-83
2022/06/05 12:25:26;;;;;;;75.60;28.85;;;19.00;99.90;;;;;;4995812;28;20054;-83
2022/06/05 12:28:18;;;;;;;81.80;28.20;;;19.10;99.90;;;;;;4997017;28;20053;-84
2022/06/05 12:30:50;;;;;;;73.25;29.05;;;19.20;99.90;;;;;;5006409;28;20137;-83
2022/06/05 12:33:31;;;;;;;71.55;27.80;;;19.00;99.90;;;;;;5014878;28;20042;-83
2022/06/05 12:36:24;;;;;;;75.38;28.45;;;19.10;99.90;;;;;;5015155;28;20140;-82
2022/06/05 12:39:02;;;;;;;78.15;28.80;;;19.20;99.90;;;;;;5014917;28;20050;-82
2022/06/05 12:41:52;;;;;;;73.10;28.30;;;18.90;99.90;;;;;;5015663;28;20481;-81
2022/06/05 12:44:23;;;;;;;84.32;29.33;;;19.10;99.90;;;;;;5014973;28;20042;-83
2022/06/05 12:47:04;;;;;;;77.20;27.55;;;19.10;99.90;;;;;;5013989;28;20048;-82
2022/06/05 12:49:44;;;;;;;79.10;28.25;;;19.00;99.90;;;;;;5014621;28;20539;-79
2022/06/05 12:52:40;;;;;;;79.93;29.15;;;18.90;99.90;;;;;;5014785;28;20049;-78
2022/06/05 12:55:14;;;;;;;71.28;26.83;;;18.80;99.90;;;;;;5014771;28;20524;-78
2022/06/05 12:57:46;;;;;;;79.85;28.65;;;18.90;99.90;;;;;;5015777;28;20033;-79
2022/06/05 13:00:41;;;;;;;71.53;27.98;;;19.10;99.90;;;;;;5013652;28;20053;-78
2022/06/05 13:03:41;;;;;;;75.47;27.77;;;19.20;99.90;;;;;;4995819;28;20054;-78
2022/06/05 13:06:35;;;;;;;70.03;29.83;;;19.20;99.90;;;;;;5013476;28;20078;-78
2022/06/05 13:09:33;;;;;;;75.20;29.40;;;19.00;99.90;;;;;;5014718;28;20045;-79
2022/06/05 13:12:08;;;;;;;84.97;28.02;;;19.10;99.90;;;;;;5013859;28;20054;-78
2022/06/05 13:15:00;;;;;;;71.88;31.13;;;19.00;99.90;;;;;;5015471;28;20397;-80
2022/06/05 13:17:49;;;;;;;74.40;27.90;;;18.80;99.90;;;;;;5004064;28;20060;-78
2022/06/05 13:20:21;;;;;;;65.72;29.33;;;18.80;99.90;;;;;;5014387;28;20054;-79